Terminal Aerodrome Forecast
Issued by NWS

Home | Current Version | Previous Version | Text Only | Print | Product List | Glossary On
Versions: 1 2 3 4 5 6 7 8 9 10 11 12
401
FTUS46 KSGX 281721
TAFONT
TAF
KONT 281721Z 2818/2924 VRB05KT P6SM FEW250
     FM282000 25012KT P6SM SCT250
     FM290400 VRB05KT P6SM FEW250
     FM292100 26012KT P6SM FEW100 FEW250=

USA.gov is the U.S. government's official web portal to all federal, state and local government web resources and services.